createdAt,value
2022-08-05T00:00:00.477Z,65.26
2022-08-05T00:02:07.670Z,65.94
2022-08-05T00:04:11.679Z,66.08
2022-08-05T00:06:29.091Z,66.34
2022-08-05T00:08:38.547Z,65.48
2022-08-05T00:10:42.332Z,65.78
2022-08-05T00:12:56.529Z,65.33
2022-08-05T00:15:54.382Z,65.50
2022-08-05T00:17:25.734Z,65.88
2022-08-05T00:19:33.845Z,65.67
2022-08-05T00:21:49.584Z,65.86
2022-08-05T00:24:05.080Z,65.94
2022-08-05T00:26:16.447Z,66.10
2022-08-05T00:28:21.150Z,66.28
2022-08-05T00:30:33.245Z,66.87
2022-08-05T00:32:37.176Z,66.12
2022-08-05T00:35:03.547Z,66.36
2022-08-05T00:37:14.404Z,66.32
2022-08-05T00:39:19.958Z,66.89
2022-08-05T00:41:51.436Z,67.22
2022-08-05T00:43:54.975Z,67.18
2022-08-05T00:45:58.779Z,67.29
2022-08-05T00:48:05.485Z,67.05
2022-08-05T00:50:10.587Z,67.65
2022-08-05T00:52:14.667Z,67.60
2022-08-05T00:54:22.609Z,67.22
2022-08-05T00:56:31.856Z,67.98
2022-08-05T00:58:35.483Z,67.53
2022-08-05T01:00:42.134Z,67.69
2022-08-05T01:02:46.146Z,68.06
2022-08-05T01:04:50.351Z,68.43
2022-08-05T01:06:55.052Z,68.00
2022-08-05T01:08:58.749Z,67.52
2022-08-05T01:11:08.343Z,67.60
2022-08-05T01:13:27.338Z,67.93
2022-08-05T01:15:36.857Z,67.58
2022-08-05T01:17:45.227Z,67.69
2022-08-05T01:20:11.585Z,68.08
2022-08-05T01:22:52.868Z,68.25
2022-08-05T01:25:20.892Z,68.49
2022-08-05T01:28:02.172Z,68.89
2022-08-05T01:30:17.805Z,69.65
2022-08-05T01:32:27.657Z,70.21
2022-08-05T01:34:39.972Z,70.72
2022-08-05T01:36:48.353Z,70.84
2022-08-05T01:38:52.502Z,70.73
2022-08-05T01:40:58.939Z,71.68
2022-08-05T01:43:04.924Z,70.80
2022-08-05T01:45:11.133Z,71.47
2022-08-05T01:47:19.004Z,71.52
2022-08-05T01:49:25.973Z,71.21
2022-08-05T01:51:52.065Z,71.55
2022-08-05T01:53:58.824Z,71.43
2022-08-05T01:56:04.689Z,71.54
2022-08-05T01:58:16.736Z,71.43
2022-08-05T02:00:20.988Z,71.88
2022-08-05T02:02:35.369Z,71.46
2022-08-05T02:04:42.151Z,71.82
2022-08-05T02:06:50.069Z,71.70
2022-08-05T02:08:57.829Z,71.95
2022-08-05T02:11:08.603Z,71.72
2022-08-05T02:13:20.423Z,71.82
2022-08-05T02:15:33.363Z,71.84
2022-08-05T02:18:32.403Z,71.69
2022-08-05T02:20:12.889Z,72.15
2022-08-05T02:22:25.641Z,71.95
2022-08-05T02:24:40.638Z,71.30
2022-08-05T02:26:54.735Z,71.30
2022-08-05T02:29:00.461Z,71.86
2022-08-05T02:31:14.370Z,71.31
2022-08-05T02:33:24.498Z,71.46
2022-08-05T02:35:50.918Z,71.79
2022-08-05T02:38:02.566Z,71.59
2022-08-05T02:40:09.486Z,71.83
2022-08-05T02:42:25.923Z,71.78
2022-08-05T02:44:36.868Z,71.77
2022-08-05T02:46:53.124Z,71.82
2022-08-05T02:49:02.536Z,71.45
2022-08-05T02:51:06.853Z,71.58
2022-08-05T02:53:18.820Z,71.92
2022-08-05T02:55:53.711Z,71.94
2022-08-05T02:58:09.415Z,71.57
2022-08-05T03:00:13.988Z,71.76
2022-08-05T03:02:21.183Z,71.92
2022-08-05T03:04:24.996Z,72.29
2022-08-05T03:06:57.160Z,72.40
2022-08-05T03:08:53.415Z,72.50
2022-08-05T03:11:53.288Z,72.58
2022-08-05T03:13:20.899Z,72.51
2022-08-05T03:15:32.482Z,72.38
2022-08-05T03:17:41.760Z,72.72
2022-08-05T03:19:45.556Z,72.74
2022-08-05T03:21:49.824Z,72.67
2022-08-05T03:23:54.197Z,72.91
2022-08-05T03:26:30.393Z,73.09
2022-08-05T03:28:21.383Z,73.30
2022-08-05T03:30:33.347Z,73.68
2022-08-05T03:32:40.366Z,73.83
2022-08-05T03:34:51.008Z,73.52
2022-08-05T03:36:54.856Z,74.01
2022-08-05T03:38:58.458Z,73.92
2022-08-05T03:41:08.152Z,73.92
2022-08-05T03:43:58.868Z,74.35
2022-08-05T03:45:57.201Z,74.11
2022-08-05T03:47:59.903Z,74.65
2022-08-05T03:50:03.439Z,74.57
2022-08-05T03:52:49.444Z,74.69
2022-08-05T03:55:50.143Z,74.58
2022-08-05T03:57:15.955Z,74.79
2022-08-05T03:59:26.231Z,74.72
2022-08-05T04:01:34.142Z,74.88
2022-08-05T04:03:41.521Z,75.26
2022-08-05T04:06:06.806Z,75.10
2022-08-05T04:08:29.695Z,75.57
2022-08-05T04:10:38.353Z,75.82
2022-08-05T04:14:44.411Z,76.13
2022-08-05T04:16:47.882Z,76.18
2022-08-05T04:18:54.278Z,76.15
2022-08-05T04:20:59.213Z,76.46
2022-08-05T04:23:02.502Z,76.17
2022-08-05T04:25:07.709Z,76.42
2022-08-05T04:27:15.323Z,76.76
2022-08-05T04:29:18.722Z,76.89
2022-08-05T04:31:23.133Z,77.05
2022-08-05T04:34:17.510Z,77.00
2022-08-05T04:36:11.382Z,76.89
2022-08-05T04:38:19.095Z,77.05
2022-08-05T04:40:22.483Z,76.83
2022-08-05T04:42:26.255Z,77.29
2022-08-05T04:44:30.729Z,77.04
2022-08-05T04:46:34.137Z,77.37
2022-08-05T04:48:37.577Z,78.00
2022-08-05T04:51:02.848Z,78.19
2022-08-05T04:53:07.023Z,78.61
2022-08-05T04:55:14.886Z,78.60
2022-08-05T04:57:18.635Z,78.60
2022-08-05T04:59:38.516Z,78.86
2022-08-05T05:02:07.316Z,79.22
2022-08-05T05:04:06.384Z,78.85
2022-08-05T05:06:39.153Z,79.56
2022-08-05T05:08:38.144Z,79.22
2022-08-05T05:10:56.213Z,78.74
2022-08-05T05:12:59.955Z,79.00
2022-08-05T05:15:10.676Z,79.37
2022-08-05T05:17:14.384Z,79.30
2022-08-05T05:19:19.191Z,78.44
2022-08-05T05:21:22.832Z,78.73
2022-08-05T05:23:39.285Z,78.70
2022-08-05T05:25:55.500Z,78.98
2022-08-05T05:27:59.753Z,78.29
2022-08-05T05:30:05.190Z,78.19
2022-08-05T05:32:12.620Z,78.41
2022-08-05T05:34:26.672Z,78.77
2022-08-05T05:36:30.730Z,78.45
2022-08-05T05:38:34.903Z,78.29
2022-08-05T05:40:38.246Z,77.64
2022-08-05T05:42:48.405Z,77.35
2022-08-05T05:44:52.645Z,76.71
2022-08-05T05:47:04.574Z,75.84
2022-08-05T05:49:22.635Z,76.03
2022-08-05T05:51:27.795Z,75.39
2022-08-05T05:53:31.504Z,75.45
2022-08-05T05:56:01.363Z,75.60
2022-08-05T05:58:08.026Z,74.85
2022-08-05T06:00:15.308Z,74.99
2022-08-05T06:02:32.502Z,74.81
2022-08-05T06:04:41.055Z,74.28
2022-08-05T06:06:47.461Z,71.27
2022-08-05T06:08:52.326Z,67.79
2022-08-05T06:10:56.849Z,65.20
2022-08-05T06:13:00.228Z,61.41
2022-08-05T06:15:08.106Z,59.94
2022-08-05T06:17:22.476Z,57.69
2022-08-05T06:19:34.599Z,57.15
2022-08-05T06:21:42.909Z,58.59
2022-08-05T06:23:53.231Z,59.25
2022-08-05T06:26:12.661Z,59.37
2022-08-05T06:28:21.379Z,58.86
2022-08-05T06:30:27.317Z,57.39
2022-08-05T06:32:31.824Z,55.53
2022-08-05T06:34:35.093Z,53.93
2022-08-05T06:36:57.601Z,53.15
2022-08-05T06:39:01.671Z,51.24
2022-08-05T06:41:07.794Z,50.95
2022-08-05T06:43:57.263Z,52.08
2022-08-05T06:45:44.839Z,54.12
2022-08-05T06:48:35.996Z,56.17
2022-08-05T06:50:22.834Z,58.25
2022-08-05T06:52:38.094Z,60.03
2022-08-05T06:54:41.868Z,61.33
2022-08-05T06:56:55.163Z,62.64
2022-08-05T06:59:11.884Z,63.50
2022-08-05T07:01:16.774Z,64.24
2022-08-05T07:03:27.942Z,63.65
2022-08-05T07:05:41.099Z,61.67
2022-08-05T07:07:45.419Z,60.42
2022-08-05T07:09:55.435Z,59.81
2022-08-05T07:12:01.653Z,59.83
2022-08-05T07:14:30.335Z,60.22
2022-08-05T07:17:56.413Z,61.27
2022-08-05T07:19:16.142Z,62.61
2022-08-05T07:21:29.612Z,63.56
2022-08-05T07:23:52.981Z,64.32
2022-08-05T07:25:56.968Z,65.03
2022-08-05T07:28:06.057Z,65.60
2022-08-05T07:30:27.578Z,66.30
2022-08-05T07:32:38.187Z,66.99
2022-08-05T07:34:42.475Z,67.70
2022-08-05T07:36:46.230Z,67.81
2022-08-05T07:38:55.135Z,68.02
2022-08-05T07:41:00.321Z,68.26
2022-08-05T07:43:20.143Z,68.55
2022-08-05T07:45:43.361Z,68.51
2022-08-05T07:47:49.279Z,68.80
2022-08-05T07:49:59.446Z,68.66
2022-08-05T07:52:02.738Z,68.48
2022-08-05T07:54:08.478Z,68.40
2022-08-05T07:57:00.233Z,68.16
2022-08-05T07:58:57.749Z,67.57
2022-08-05T08:01:00.417Z,67.69
2022-08-05T08:03:15.847Z,67.52
2022-08-05T08:05:19.465Z,67.15
2022-08-05T08:07:23.902Z,67.63
2022-08-05T08:09:29.094Z,67.10
2022-08-05T08:11:51.293Z,67.50
2022-08-05T08:14:00.727Z,67.40
2022-08-05T08:16:50.084Z,67.17
2022-08-05T08:18:30.111Z,66.88
2022-08-05T08:21:00.051Z,66.55
2022-08-05T08:22:59.363Z,65.92
2022-08-05T08:25:16.207Z,65.36
2022-08-05T08:27:20.740Z,64.40
2022-08-05T08:30:03.908Z,64.00
2022-08-05T08:31:48.271Z,62.70
2022-08-05T08:33:53.519Z,62.69
2022-08-05T08:36:29.507Z,62.83
2022-08-05T08:38:35.947Z,62.75
2022-08-05T08:40:41.803Z,61.31
2022-08-05T08:42:53.214Z,60.57
2022-08-05T08:45:23.302Z,60.96
2022-08-05T08:48:06.147Z,60.10
2022-08-05T08:50:22.509Z,60.38
2022-08-05T08:52:24.807Z,59.50
2022-08-05T08:54:29.196Z,59.76
2022-08-05T08:56:34.057Z,60.10
2022-08-05T08:58:44.649Z,59.40
2022-08-05T09:00:52.515Z,59.04
2022-08-05T09:02:56.643Z,58.94
2022-08-05T09:05:17.224Z,58.76
2022-08-05T09:07:29.196Z,59.48
2022-08-05T09:09:45.387Z,59.94
2022-08-05T09:11:57.788Z,60.37
2022-08-05T09:14:54.867Z,60.72
2022-08-05T09:16:31.261Z,60.33
2022-08-05T09:18:41.315Z,59.73
2022-08-05T09:20:51.583Z,59.87
2022-08-05T09:23:19.057Z,59.55
2022-08-05T09:26:03.068Z,58.52
2022-08-05T09:28:04.536Z,58.91
2022-08-05T09:30:16.469Z,57.58
2022-08-05T09:32:45.857Z,56.42
2022-08-05T09:34:51.886Z,57.04
2022-08-05T09:36:59.448Z,57.28
2022-08-05T09:39:18.012Z,57.93
2022-08-05T09:41:22.451Z,58.25
2022-08-05T09:43:40.883Z,58.50
2022-08-05T09:46:06.465Z,57.20
2022-08-05T09:48:21.967Z,55.76
2022-08-05T09:50:44.638Z,55.36
2022-08-05T09:53:00.084Z,55.15
2022-08-05T09:55:56.586Z,54.63
2022-08-05T09:57:43.228Z,53.95
2022-08-05T09:59:49.606Z,54.05
2022-08-05T10:01:57.905Z,54.37
2022-08-05T10:04:10.272Z,54.09
2022-08-05T10:06:15.982Z,53.86
2022-08-05T10:08:37.518Z,54.49
2022-08-05T10:10:54.310Z,54.60
2022-08-05T10:13:00.458Z,53.84
2022-08-05T10:15:20.269Z,54.04
2022-08-05T10:17:38.119Z,53.70
2022-08-05T10:20:03.902Z,53.22
2022-08-05T10:22:15.784Z,53.03
2022-08-05T10:24:35.048Z,53.66
2022-08-05T10:26:51.539Z,53.91
2022-08-05T10:28:56.795Z,54.25
2022-08-05T10:32:49.648Z,54.29
2022-08-05T10:33:29.401Z,54.29
2022-08-05T10:35:40.621Z,54.46
2022-08-05T10:37:49.395Z,54.61
2022-08-05T10:40:18.462Z,55.02
2022-08-05T10:42:33.751Z,55.56
2022-08-05T10:44:39.584Z,55.93
2022-08-05T10:46:50.702Z,56.23
2022-08-05T10:49:02.760Z,56.74
2022-08-05T10:51:21.928Z,56.90
2022-08-05T10:53:54.740Z,57.33
2022-08-05T10:56:14.933Z,57.86
2022-08-05T10:58:48.044Z,57.91
2022-08-05T11:00:54.996Z,58.91
2022-08-05T11:03:25.259Z,59.91
2022-08-05T11:05:31.689Z,61.25
2022-08-05T11:08:02.545Z,62.40
2022-08-05T11:10:09.614Z,63.51
2022-08-05T11:12:55.242Z,65.03
2022-08-05T11:15:19.289Z,65.78
2022-08-05T11:17:59.229Z,66.19
2022-08-05T11:20:10.754Z,65.65
2022-08-05T11:22:43.019Z,65.38
2022-08-05T11:25:01.585Z,64.58
2022-08-05T11:27:50.160Z,64.13
2022-08-05T11:30:02.585Z,63.04
2022-08-05T11:32:27.813Z,62.65
2022-08-05T11:34:39.507Z,61.77
2022-08-05T11:36:52.803Z,61.07
2022-08-05T11:38:57.837Z,58.92
2022-08-05T11:41:34.852Z,57.67
2022-08-05T11:44:00.927Z,55.70
2022-08-05T11:46:27.214Z,54.12
2022-08-05T11:48:16.825Z,54.69
2022-08-05T11:50:22.672Z,55.24
2022-08-05T11:52:29.270Z,55.66
2022-08-05T11:54:34.921Z,55.79
2022-08-05T11:56:50.433Z,55.43
2022-08-05T11:58:55.735Z,55.03
2022-08-05T12:01:10.478Z,55.03
2022-08-05T12:03:29.481Z,55.25
2022-08-05T12:05:39.535Z,55.00
2022-08-05T12:08:08.521Z,53.67
2022-08-05T12:10:13.590Z,53.05
2022-08-05T12:12:24.100Z,53.44
2022-08-05T12:14:39.259Z,53.45
2022-08-05T12:16:48.809Z,53.25
2022-08-05T12:18:53.567Z,52.94
2022-08-05T12:20:57.332Z,52.68
2022-08-05T12:23:10.148Z,51.77
2022-08-05T12:25:14.261Z,49.89
2022-08-05T12:27:25.300Z,50.78
2022-08-05T12:29:38.008Z,50.44
2022-08-05T12:31:53.442Z,50.32
2022-08-05T12:33:58.571Z,50.94
2022-08-05T12:36:04.248Z,51.15
2022-08-05T12:38:11.603Z,51.18
2022-08-05T12:40:20.909Z,50.74
2022-08-05T12:42:31.982Z,50.98
2022-08-05T12:44:35.708Z,51.16
2022-08-05T12:46:41.246Z,51.21
2022-08-05T12:48:58.734Z,51.83
2022-08-05T12:52:11.190Z,50.78
2022-08-05T12:53:41.765Z,51.40
2022-08-05T12:55:47.852Z,51.20
2022-08-05T12:58:48.551Z,51.84
2022-08-05T13:02:03.686Z,51.76
2022-08-05T13:02:55.462Z,51.35
2022-08-05T13:05:00.834Z,51.24
2022-08-05T13:07:10.330Z,51.14
2022-08-05T13:09:15.668Z,51.02
2022-08-05T13:12:02.781Z,50.95
2022-08-05T13:14:04.666Z,50.16
2022-08-05T13:16:16.933Z,50.33
2022-08-05T13:18:20.871Z,50.00
2022-08-05T13:20:35.591Z,49.52
2022-08-05T13:22:49.326Z,49.60
2022-08-05T13:24:58.118Z,50.19
2022-08-05T13:27:05.382Z,50.06
2022-08-05T13:29:19.041Z,49.90
2022-08-05T13:32:04.330Z,50.20
2022-08-05T13:34:21.666Z,51.11
2022-08-05T13:36:27.882Z,50.75
2022-08-05T13:38:36.064Z,50.96
2022-08-05T13:40:48.119Z,50.22
2022-08-05T13:42:55.688Z,49.63
2022-08-05T13:44:59.633Z,49.51
2022-08-05T13:47:08.558Z,49.16
2022-08-05T13:49:13.032Z,48.43
2022-08-05T13:51:17.136Z,48.33
2022-08-05T13:53:22.259Z,48.22
2022-08-05T13:55:41.846Z,48.50
2022-08-05T13:57:51.951Z,48.92
2022-08-05T13:59:59.305Z,49.13
2022-08-05T14:02:20.096Z,49.81
2022-08-05T14:04:41.266Z,50.41
2022-08-05T14:06:47.569Z,50.84
2022-08-05T14:08:52.850Z,51.32
2022-08-05T14:10:59.840Z,50.22
2022-08-05T14:13:20.160Z,49.76
2022-08-05T14:16:04.312Z,49.66
2022-08-05T14:17:51.579Z,49.35
2022-08-05T14:20:04.741Z,48.22
2022-08-05T14:22:12.315Z,47.50
2022-08-05T14:24:19.526Z,47.28
2022-08-05T14:26:36.969Z,47.04
2022-08-05T14:28:52.220Z,46.99
2022-08-05T14:30:56.019Z,47.01
2022-08-05T14:32:59.805Z,46.78
2022-08-05T14:35:03.583Z,46.64
2022-08-05T14:37:07.449Z,47.20
2022-08-05T14:39:23.424Z,46.77
2022-08-05T14:41:27.234Z,46.41
2022-08-05T14:44:02.221Z,46.65
2022-08-05T14:45:55.151Z,46.76
2022-08-05T14:48:05.823Z,46.65
2022-08-05T14:50:17.487Z,46.58
2022-08-05T14:52:50.405Z,46.76
2022-08-05T14:54:52.866Z,46.71
2022-08-05T14:56:57.189Z,47.21
2022-08-05T14:59:00.828Z,47.40
2022-08-05T15:01:06.852Z,47.40
2022-08-05T15:03:19.941Z,47.46
2022-08-05T15:05:30.072Z,47.88
2022-08-05T15:08:08.612Z,48.61
2022-08-05T15:10:16.632Z,48.80
2022-08-05T15:12:20.172Z,48.27
2022-08-05T15:14:35.881Z,48.65
2022-08-05T15:16:46.799Z,48.48
2022-08-05T15:18:50.751Z,48.55
2022-08-05T15:20:56.312Z,48.14
2022-08-05T15:23:05.595Z,47.23
2022-08-05T15:25:14.337Z,47.81
2022-08-05T15:27:20.085Z,47.58
2022-08-05T15:29:23.690Z,47.63
2022-08-05T15:31:34.861Z,47.30
2022-08-05T15:34:18.892Z,46.95
2022-08-05T15:36:03.692Z,46.76
2022-08-05T15:38:32.443Z,46.90
2022-08-05T15:41:01.188Z,47.05
2022-08-05T15:43:01.653Z,46.92
2022-08-05T15:45:16.969Z,46.38
2022-08-05T15:47:23.708Z,46.32
2022-08-05T15:49:53.742Z,46.18
2022-08-05T15:52:12.756Z,46.08
2022-08-05T15:54:15.791Z,45.96
2022-08-05T15:56:20.225Z,45.68
2022-08-05T15:58:25.464Z,45.75
2022-08-05T16:00:50.486Z,44.90
2022-08-05T16:02:54.228Z,44.66
2022-08-05T16:04:58.251Z,44.27
2022-08-05T16:07:02.012Z,44.90
2022-08-05T16:09:06.046Z,45.01
2022-08-05T16:11:13.578Z,45.42
2022-08-05T16:13:19.346Z,45.49
2022-08-05T16:15:32.657Z,45.17
2022-08-05T16:17:37.858Z,45.81
2022-08-05T16:20:04.468Z,45.99
2022-08-05T16:22:10.665Z,45.96
2022-08-05T16:24:41.007Z,46.66
2022-08-05T16:26:51.631Z,46.40
2022-08-05T16:28:55.949Z,46.68
2022-08-05T16:31:01.184Z,46.80
2022-08-05T16:33:05.221Z,46.44
2022-08-05T16:35:09.728Z,46.85
2022-08-05T16:38:02.683Z,46.60
2022-08-05T16:40:05.867Z,46.50
2022-08-05T16:42:13.749Z,46.25
2022-08-05T16:44:21.002Z,46.42
2022-08-05T16:46:30.185Z,46.62
2022-08-05T16:48:35.825Z,47.23
2022-08-05T16:50:39.510Z,47.17
2022-08-05T16:52:45.930Z,47.68
2022-08-05T16:54:49.774Z,47.31
2022-08-05T16:56:53.568Z,47.23
2022-08-05T16:58:57.351Z,47.21
2022-08-05T17:01:01.115Z,47.52
2022-08-05T17:03:19.722Z,47.36
2022-08-05T17:05:24.359Z,47.77
2022-08-05T17:07:39.110Z,47.17
2022-08-05T17:09:57.539Z,47.08
2022-08-05T17:12:02.376Z,47.02
2022-08-05T17:14:06.837Z,47.02
2022-08-05T17:16:33.538Z,46.76
2022-08-05T17:18:41.059Z,46.27
2022-08-05T17:20:45.394Z,45.82
2022-08-05T17:22:55.517Z,46.21
2022-08-05T17:25:00.261Z,46.21
2022-08-05T17:27:05.071Z,45.75
2022-08-05T17:29:10.194Z,45.83
2022-08-05T17:31:24.430Z,45.12
2022-08-05T17:33:38.901Z,44.90
2022-08-05T17:36:07.927Z,44.56
2022-08-05T17:38:14.300Z,43.77
2022-08-05T17:40:22.573Z,43.79
2022-08-05T17:42:31.833Z,44.60
2022-08-05T17:44:36.238Z,44.85
2022-08-05T17:46:39.581Z,44.36
2022-08-05T17:48:44.890Z,44.76
2022-08-05T17:50:53.544Z,44.44
2022-08-05T17:52:59.190Z,44.28
2022-08-05T17:55:03.242Z,44.44
2022-08-05T17:57:12.201Z,44.23
2022-08-05T17:59:20.989Z,44.34
2022-08-05T18:01:26.595Z,44.07
2022-08-05T18:03:59.255Z,44.66
2022-08-05T18:05:56.218Z,44.32
2022-08-05T18:08:06.171Z,44.73
2022-08-05T18:10:14.143Z,44.76
2022-08-05T18:12:25.416Z,44.15
2022-08-05T18:14:32.091Z,44.55
2022-08-05T18:16:47.002Z,44.50
2022-08-05T18:18:55.394Z,44.75
2022-08-05T18:21:03.267Z,44.53
2022-08-05T18:23:11.185Z,44.39
2022-08-05T18:25:17.109Z,44.66
2022-08-05T18:27:21.379Z,44.61
2022-08-05T18:29:40.464Z,44.77
2022-08-05T18:31:45.089Z,44.98
2022-08-05T18:33:49.806Z,45.18
2022-08-05T18:36:00.123Z,44.94
2022-08-05T18:38:10.824Z,44.85
2022-08-05T18:40:33.821Z,45.11
2022-08-05T18:42:39.920Z,45.24
2022-08-05T18:44:48.956Z,45.10
2022-08-05T18:46:59.033Z,45.00
2022-08-05T18:49:30.458Z,45.17
2022-08-05T18:52:04.583Z,45.31
2022-08-05T18:54:13.425Z,45.32
2022-08-05T18:56:17.598Z,45.15
2022-08-05T18:58:28.924Z,45.36
2022-08-05T19:00:34.695Z,45.22
2022-08-05T19:02:39.147Z,45.67
2022-08-05T19:05:01.301Z,45.79
2022-08-05T19:07:07.434Z,45.92
2022-08-05T19:09:13.813Z,45.96
2022-08-05T19:11:18.353Z,46.54
2022-08-05T19:13:36.145Z,46.71
2022-08-05T19:15:59.959Z,46.95
2022-08-05T19:18:09.304Z,46.86
2022-08-05T19:20:15.458Z,47.54
2022-08-05T19:22:27.509Z,47.39
2022-08-05T19:24:34.276Z,47.43
2022-08-05T19:26:44.055Z,47.59
2022-08-05T19:28:59.676Z,47.54
2022-08-05T19:31:05.975Z,47.78
2022-08-05T19:33:12.888Z,47.83
2022-08-05T19:35:21.746Z,47.79
2022-08-05T19:37:30.039Z,48.12
2022-08-05T19:39:51.537Z,48.46
2022-08-05T19:42:07.309Z,48.47
2022-08-05T19:44:14.218Z,48.28
2022-08-05T19:46:29.713Z,48.43
2022-08-05T19:48:34.638Z,48.52
2022-08-05T19:50:38.351Z,48.65
2022-08-05T19:52:42.844Z,48.73
2022-08-05T19:54:53.315Z,48.69
2022-08-05T19:56:57.644Z,48.74
2022-08-05T19:59:51.617Z,49.08
2022-08-05T20:01:28.332Z,49.29
2022-08-05T20:03:40.822Z,48.96
2022-08-05T20:05:51.257Z,49.50
2022-08-05T20:07:59.100Z,49.27
2022-08-05T20:10:04.734Z,49.68
2022-08-05T20:12:15.394Z,49.88
2022-08-05T20:14:26.696Z,49.88
2022-08-05T20:16:30.832Z,50.15
2022-08-05T20:18:35.829Z,50.16
2022-08-05T20:20:40.380Z,50.40
2022-08-05T20:22:44.448Z,50.60
2022-08-05T20:24:50.753Z,50.89
2022-08-05T20:26:59.249Z,51.20
2022-08-05T20:29:03.267Z,51.24
2022-08-05T20:31:07.626Z,51.38
2022-08-05T20:33:11.697Z,51.69
2022-08-05T20:35:17.651Z,51.78
2022-08-05T20:38:04.909Z,51.80
2022-08-05T20:39:51.543Z,51.97
2022-08-05T20:41:55.950Z,51.89
2022-08-05T20:44:19.101Z,51.97
2022-08-05T20:46:30.429Z,52.24
2022-08-05T20:48:37.223Z,52.48
2022-08-05T20:50:45.166Z,52.54
2022-08-05T20:52:49.219Z,52.80
2022-08-05T20:55:15.976Z,52.92
2022-08-05T20:57:41.884Z,53.10
2022-08-05T21:00:10.293Z,53.24
2022-08-05T21:02:09.563Z,53.38
2022-08-05T21:04:14.319Z,53.36
2022-08-05T21:06:27.531Z,53.77
2022-08-05T21:08:42.421Z,54.00
2022-08-05T21:10:48.817Z,54.17
2022-08-05T21:12:57.603Z,54.21
2022-08-05T21:15:03.437Z,54.50
2022-08-05T21:17:07.691Z,54.57
2022-08-05T21:19:11.781Z,54.79
2022-08-05T21:21:15.763Z,55.00
2022-08-05T21:23:19.432Z,54.91
2022-08-05T21:25:25.910Z,55.24
2022-08-05T21:27:38.894Z,55.26
2022-08-05T21:29:42.730Z,55.62
2022-08-05T21:31:53.577Z,55.79
2022-08-05T21:33:57.124Z,56.03
2022-08-05T21:36:03.057Z,56.09
2022-08-05T21:38:07.614Z,56.51
2022-08-05T21:40:13.797Z,56.56
2022-08-05T21:42:40.939Z,56.53
2022-08-05T21:44:43.805Z,56.98
2022-08-05T21:46:47.476Z,57.05
2022-08-05T21:48:56.580Z,57.12
2022-08-05T21:51:00.713Z,57.06
2022-08-05T21:53:16.153Z,57.46
2022-08-05T21:56:01.175Z,57.59
2022-08-05T21:57:45.326Z,57.62
2022-08-05T22:00:06.469Z,57.95
2022-08-05T22:02:16.577Z,58.21
2022-08-05T22:04:25.415Z,58.82
2022-08-05T22:06:35.569Z,58.92
2022-08-05T22:08:43.268Z,59.07
2022-08-05T22:10:50.981Z,59.08
2022-08-05T22:12:54.554Z,58.71
2022-08-05T22:15:00.792Z,59.54
2022-08-05T22:17:06.752Z,59.96
2022-08-05T22:19:57.222Z,59.88
2022-08-05T22:21:35.600Z,60.18
2022-08-05T22:24:01.835Z,59.56
2022-08-05T22:26:24.156Z,60.23
2022-08-05T22:28:28.102Z,60.23
2022-08-05T22:30:35.130Z,60.61
2022-08-05T22:32:39.525Z,60.50
2022-08-05T22:34:45.723Z,61.23
2022-08-05T22:36:51.765Z,60.70
2022-08-05T22:38:55.807Z,61.55
2022-08-05T22:41:00.412Z,61.19
2022-08-05T22:43:13.842Z,61.27
2022-08-05T22:45:17.612Z,61.82
2022-08-05T22:47:30.185Z,61.82
2022-08-05T22:50:20.258Z,61.73
2022-08-05T22:52:06.444Z,62.19
2022-08-05T22:54:12.544Z,62.70
2022-08-05T22:56:16.306Z,62.82
2022-08-05T22:58:28.349Z,62.96
2022-08-05T23:00:32.806Z,63.35
2022-08-05T23:02:40.070Z,63.17
2022-08-05T23:04:51.632Z,63.26
2022-08-05T23:06:56.208Z,63.35
2022-08-05T23:09:24.614Z,62.82
2022-08-05T23:11:25.257Z,63.58
2022-08-05T23:13:28.952Z,63.28
2022-08-05T23:15:34.892Z,63.38
2022-08-05T23:18:00.997Z,64.07
2022-08-05T23:20:02.782Z,64.39
2022-08-05T23:22:06.186Z,64.76
2022-08-05T23:24:12.678Z,64.17
2022-08-05T23:26:16.170Z,64.19
2022-08-05T23:28:21.920Z,64.42
2022-08-05T23:30:27.154Z,64.58
2022-08-05T23:32:32.887Z,64.35
2022-08-05T23:34:37.925Z,64.02
2022-08-05T23:36:44.504Z,64.81
2022-08-05T23:38:48.435Z,64.30
2022-08-05T23:40:54.854Z,64.55
2022-08-05T23:42:58.450Z,64.98
2022-08-05T23:45:02.437Z,64.90
2022-08-05T23:47:14.971Z,65.17
2022-08-05T23:49:23.796Z,65.15
2022-08-05T23:51:55.398Z,65.06
2022-08-05T23:54:00.908Z,64.72
2022-08-05T23:56:07.921Z,65.08
2022-08-05T23:58:32.168Z,65.31
